createdAt,value
2023-03-03T00:01:43.428Z,0.70
2023-03-03T00:04:12.108Z,0.60
2023-03-03T00:06:41.951Z,0.60
2023-03-03T00:09:10.550Z,0.60
2023-03-03T00:11:39.094Z,0.60
2023-03-03T00:14:20.704Z,0.60
2023-03-03T00:16:49.959Z,0.60
2023-03-03T00:19:20.558Z,0.50
2023-03-03T00:21:51.689Z,0.60
2023-03-03T00:24:23.312Z,0.50
2023-03-03T00:26:55.473Z,0.50
2023-03-03T00:29:31.611Z,0.40
2023-03-03T00:32:26.263Z,0.40
2023-03-03T00:34:56.441Z,0.30
2023-03-03T00:37:33.936Z,0.30
2023-03-03T00:40:21.905Z,0.30
2023-03-03T00:42:52.448Z,0.30
2023-03-03T00:45:30.137Z,0.20
2023-03-03T00:47:59.463Z,0.20
2023-03-03T00:50:31.946Z,0.20
2023-03-03T00:53:14.659Z,0.10
2023-03-03T00:55:43.185Z,0.10
2023-03-03T00:58:11.842Z,0.10
2023-03-03T01:00:44.891Z,0.00
2023-03-03T01:03:17.910Z,0.00
2023-03-03T01:05:46.809Z,0.00
2023-03-03T01:08:16.716Z,0.00
2023-03-03T01:10:48.562Z,-0.10
2023-03-03T01:13:17.325Z,-0.10
2023-03-03T01:15:46.395Z,-0.10
2023-03-03T01:18:16.161Z,-0.10
2023-03-03T01:20:44.751Z,-0.10
2023-03-03T01:23:13.690Z,-0.10
2023-03-03T01:25:43.656Z,-0.10
2023-03-03T01:28:12.476Z,-0.10
2023-03-03T01:30:41.470Z,-0.10
2023-03-03T01:33:10.321Z,-0.10
2023-03-03T01:35:40.934Z,-0.20
2023-03-03T01:38:09.505Z,-0.20
2023-03-03T01:40:38.250Z,-0.20
2023-03-03T01:43:08.706Z,-0.20
2023-03-03T01:46:06.627Z,-0.20
2023-03-03T01:48:39.445Z,-0.20
2023-03-03T01:51:16.484Z,-0.20
2023-03-03T01:53:47.489Z,-0.30
2023-03-03T01:56:17.618Z,-0.30
2023-03-03T01:58:53.910Z,-0.30
2023-03-03T02:01:27.520Z,-0.30
2023-03-03T02:03:56.749Z,-0.30
2023-03-03T02:06:29.574Z,0.10
2023-03-03T02:09:03.030Z,-0.30
2023-03-03T02:11:33.878Z,-0.30
2023-03-03T02:14:04.072Z,-0.30
2023-03-03T02:16:32.760Z,-0.30
2023-03-03T02:19:01.601Z,-0.40
2023-03-03T02:21:31.018Z,-0.40
2023-03-03T02:24:05.053Z,-0.30
2023-03-03T02:26:40.398Z,-0.40
2023-03-03T02:29:11.340Z,-0.50
2023-03-03T02:31:43.158Z,-0.50
2023-03-03T02:34:12.384Z,-0.50
2023-03-03T02:36:42.491Z,-0.50
2023-03-03T02:39:15.182Z,-0.50
2023-03-03T02:41:49.015Z,-0.50
2023-03-03T02:44:19.233Z,-0.50
2023-03-03T02:46:49.474Z,-0.50
2023-03-03T02:49:20.546Z,-0.50
2023-03-03T02:51:49.288Z,-0.50
2023-03-03T02:54:20.006Z,-0.50
2023-03-03T02:56:50.316Z,-0.50
2023-03-03T02:59:19.935Z,-0.50
2023-03-03T03:01:51.088Z,-0.50
2023-03-03T03:04:23.127Z,-0.50
2023-03-03T03:06:53.625Z,-0.50
2023-03-03T03:09:24.594Z,-0.50
2023-03-03T03:11:55.784Z,-0.50
2023-03-03T03:14:27.615Z,-0.60
2023-03-03T03:16:57.414Z,-0.60
2023-03-03T03:19:26.020Z,-0.60
2023-03-03T03:21:54.759Z,-0.60
2023-03-03T03:24:23.381Z,-0.60
2023-03-03T03:27:00.123Z,-0.60
2023-03-03T03:29:29.777Z,-0.60
2023-03-03T03:31:58.356Z,-0.60
2023-03-03T03:34:27.121Z,-0.60
2023-03-03T03:36:57.312Z,-0.60
2023-03-03T03:39:27.998Z,-0.60
2023-03-03T03:41:58.867Z,-0.60
2023-03-03T03:44:27.917Z,-0.60
2023-03-03T03:46:57.056Z,-0.60
2023-03-03T03:49:26.594Z,-0.60
2023-03-03T03:51:58.141Z,-0.60
2023-03-03T03:54:29.778Z,-0.60
2023-03-03T03:56:59.844Z,-0.60
2023-03-03T03:59:29.499Z,-0.60
2023-03-03T04:01:58.494Z,-0.60
2023-03-03T04:04:27.814Z,-0.60
2023-03-03T04:06:56.419Z,-0.60
2023-03-03T04:09:25.009Z,-0.60
2023-03-03T04:11:53.636Z,-0.60
2023-03-03T04:14:23.531Z,-0.70
2023-03-03T04:16:52.820Z,-0.60
2023-03-03T04:19:21.462Z,-0.60
2023-03-03T04:21:52.736Z,-0.60
2023-03-03T04:24:21.321Z,-0.50
2023-03-03T04:26:52.759Z,-0.50
2023-03-03T04:29:22.745Z,-0.50
2023-03-03T04:31:51.900Z,-0.40
2023-03-03T04:34:20.925Z,-0.40
2023-03-03T04:36:50.093Z,-0.30
2023-03-03T04:39:18.878Z,-0.30
2023-03-03T04:41:47.468Z,-0.30
2023-03-03T04:44:16.178Z,-0.20
2023-03-03T04:46:46.782Z,-0.20
2023-03-03T04:49:15.396Z,-0.10
2023-03-03T04:51:45.160Z,-0.10
2023-03-03T04:54:14.292Z,-0.10
2023-03-03T04:56:42.993Z,0.00
2023-03-03T04:59:11.663Z,0.00
2023-03-03T05:01:40.358Z,0.10
2023-03-03T05:04:10.287Z,0.10
2023-03-03T05:06:40.931Z,0.20
2023-03-03T05:09:09.691Z,0.30
2023-03-03T05:11:38.826Z,0.40
2023-03-03T05:14:08.236Z,0.50
2023-03-03T05:16:36.921Z,0.40
2023-03-03T05:19:05.466Z,0.50
2023-03-03T05:21:36.921Z,0.50
2023-03-03T05:24:06.496Z,0.50
2023-03-03T05:26:35.074Z,0.60
2023-03-03T05:29:03.989Z,0.60
2023-03-03T05:31:32.609Z,0.70
2023-03-03T05:34:01.223Z,0.70
2023-03-03T05:36:29.884Z,0.80
2023-03-03T05:38:59.901Z,0.80
2023-03-03T05:41:28.487Z,0.90
2023-03-03T05:43:57.076Z,0.90
2023-03-03T05:46:25.634Z,0.90
2023-03-03T05:48:54.368Z,1.00
2023-03-03T05:51:22.912Z,1.00
2023-03-03T05:53:51.612Z,1.00
2023-03-03T05:56:21.547Z,0.90
2023-03-03T05:58:50.148Z,1.00
2023-03-03T06:01:18.713Z,1.10
2023-03-03T06:03:47.378Z,1.10
2023-03-03T06:06:17.147Z,1.10
2023-03-03T06:08:46.080Z,1.10
2023-03-03T06:11:16.641Z,1.10
2023-03-03T06:13:46.945Z,1.10
2023-03-03T06:16:15.663Z,1.10
2023-03-03T06:18:44.243Z,1.20
2023-03-03T06:21:12.830Z,1.10
2023-03-03T06:23:41.591Z,1.20
2023-03-03T06:26:10.492Z,1.20
2023-03-03T06:28:39.269Z,1.10
2023-03-03T06:31:09.235Z,1.10
2023-03-03T06:33:38.416Z,1.10
2023-03-03T06:36:07.513Z,1.10
2023-03-03T06:38:36.175Z,1.10
2023-03-03T06:41:07.446Z,1.10
2023-03-03T06:43:36.133Z,1.10
2023-03-03T06:46:05.023Z,1.10
2023-03-03T06:48:35.421Z,1.10
2023-03-03T06:51:07.898Z,1.10
2023-03-03T06:53:36.613Z,1.10
2023-03-03T06:56:10.693Z,1.10
2023-03-03T06:58:39.477Z,1.10
2023-03-03T07:01:16.582Z,1.10
2023-03-03T07:03:47.478Z,1.10
2023-03-03T07:06:23.424Z,1.10
2023-03-03T07:08:53.063Z,1.10
2023-03-03T07:11:23.746Z,1.10
2023-03-03T07:13:54.019Z,1.30
2023-03-03T07:16:28.531Z,1.30
2023-03-03T07:19:01.557Z,1.40
2023-03-03T07:21:34.023Z,1.40
2023-03-03T07:24:12.581Z,1.40
2023-03-03T07:26:41.223Z,1.40
2023-03-03T07:29:22.327Z,1.50
2023-03-03T07:31:51.980Z,1.50
2023-03-03T07:34:24.774Z,1.40
2023-03-03T07:36:56.604Z,1.40
2023-03-03T07:39:35.063Z,1.50
2023-03-03T07:42:21.226Z,1.40
2023-03-03T07:44:57.366Z,1.40
2023-03-03T07:47:27.645Z,1.40
2023-03-03T07:50:00.640Z,1.50
2023-03-03T07:52:32.815Z,1.40
2023-03-03T07:55:03.679Z,1.40
2023-03-03T07:57:37.751Z,1.40
2023-03-03T08:00:49.298Z,1.40
2023-03-03T08:03:20.447Z,1.40
2023-03-03T08:05:51.564Z,1.40
2023-03-03T08:08:31.092Z,1.40
2023-03-03T08:11:01.201Z,1.40
2023-03-03T08:13:37.749Z,1.40
2023-03-03T08:16:26.992Z,1.40
2023-03-03T08:18:57.215Z,1.40
2023-03-03T08:21:28.332Z,1.50
2023-03-03T08:23:56.840Z,1.50
2023-03-03T08:26:26.830Z,1.50
2023-03-03T08:28:56.300Z,1.60
2023-03-03T08:31:39.826Z,1.60
2023-03-03T08:34:09.636Z,1.50
2023-03-03T08:36:39.541Z,1.60
2023-03-03T08:39:09.313Z,1.60
2023-03-03T10:30:00.796Z,1.90
2023-03-03T10:32:51.757Z,2.30
2023-03-03T10:35:40.048Z,2.40
2023-03-03T10:38:30.306Z,2.50
2023-03-03T10:41:08.486Z,2.40
2023-03-03T10:43:51.124Z,2.60
2023-03-03T10:46:45.566Z,2.50
2023-03-03T10:49:39.390Z,2.50
2023-03-03T10:52:33.830Z,2.60
2023-03-03T10:55:18.578Z,2.60
2023-03-03T10:57:59.145Z,2.60
2023-03-03T11:00:32.631Z,2.60
2023-03-03T11:03:31.607Z,2.70
2023-03-03T11:06:02.498Z,2.70
2023-03-03T11:08:37.459Z,2.70
2023-03-03T11:11:14.108Z,2.80
2023-03-03T11:13:48.826Z,2.80
2023-03-03T11:16:29.555Z,2.80
2023-03-03T11:19:09.047Z,2.90
2023-03-03T11:21:47.605Z,2.90
2023-03-03T11:24:28.272Z,2.90
2023-03-03T11:27:16.412Z,3.00
2023-03-03T11:29:56.955Z,3.00
2023-03-03T11:32:33.832Z,3.00
2023-03-03T11:35:19.995Z,3.10
2023-03-03T11:38:01.385Z,3.10
2023-03-03T11:40:37.138Z,3.10
2023-03-03T11:43:26.308Z,3.10
2023-03-03T11:46:10.094Z,3.20
2023-03-03T11:48:44.891Z,3.20
2023-03-03T11:51:20.991Z,3.30
2023-03-03T11:53:59.808Z,3.40
2023-03-03T11:56:34.878Z,3.40
2023-03-03T11:59:21.403Z,3.40
2023-03-03T12:01:55.223Z,3.50
2023-03-03T12:04:30.876Z,3.50
2023-03-03T12:07:19.435Z,3.60
2023-03-03T12:10:00.503Z,3.60
2023-03-03T12:12:34.867Z,3.60
2023-03-03T12:15:18.419Z,3.70
2023-03-03T12:18:08.330Z,3.70
2023-03-03T12:20:46.005Z,3.80
2023-03-03T12:23:36.899Z,3.80
2023-03-03T12:26:11.217Z,3.80
2023-03-03T12:28:46.081Z,3.90
2023-03-03T12:31:30.472Z,4.00
2023-03-03T12:34:01.979Z,4.00
2023-03-03T12:36:51.378Z,4.10
2023-03-03T12:39:36.759Z,4.20
2023-03-03T12:42:13.854Z,4.30
2023-03-03T12:44:47.888Z,4.30
2023-03-03T12:47:23.409Z,4.40
2023-03-03T12:50:08.311Z,4.40
2023-03-03T12:52:47.721Z,4.40
2023-03-03T12:55:27.843Z,4.60
2023-03-03T12:58:03.976Z,4.50
2023-03-03T13:00:44.689Z,4.60
2023-03-03T13:03:31.569Z,4.60
2023-03-03T13:06:12.223Z,4.70
2023-03-03T13:08:59.094Z,4.70
2023-03-03T13:11:53.040Z,4.80
2023-03-03T13:14:32.952Z,4.80
2023-03-03T13:17:16.677Z,4.80
2023-03-03T13:19:50.449Z,5.00
2023-03-03T13:22:28.888Z,5.00
2023-03-03T13:25:02.645Z,5.00
2023-03-03T13:27:39.360Z,5.00
2023-03-03T13:30:17.413Z,5.10
2023-03-03T13:32:52.991Z,5.10
2023-03-03T13:35:32.956Z,5.20
2023-03-03T13:38:06.366Z,5.10
2023-03-03T13:40:43.209Z,5.20
2023-03-03T13:43:19.985Z,5.20
2023-03-03T13:45:59.005Z,5.30
2023-03-03T13:48:43.567Z,5.30
2023-03-03T13:51:20.649Z,5.40
2023-03-03T13:53:56.674Z,5.50
2023-03-03T13:56:38.764Z,5.60
2023-03-03T13:59:21.372Z,5.60
2023-03-03T14:01:58.980Z,5.50
2023-03-03T14:04:37.851Z,5.40
2023-03-03T14:07:14.420Z,5.50
2023-03-03T14:09:59.713Z,5.40
2023-03-03T14:12:37.925Z,5.40
2023-03-03T14:15:21.608Z,5.40
2023-03-03T14:18:19.308Z,5.40
2023-03-03T14:20:51.125Z,5.40
2023-03-03T14:23:24.067Z,5.40
2023-03-03T14:25:57.696Z,5.40
2023-03-03T14:28:28.445Z,5.40
2023-03-03T14:31:00.254Z,5.50
2023-03-03T14:33:32.334Z,5.50
2023-03-03T14:36:06.814Z,5.60
2023-03-03T14:38:45.981Z,5.60
2023-03-03T14:41:17.781Z,5.60
2023-03-03T14:43:57.794Z,5.40
2023-03-03T14:46:36.379Z,5.50
2023-03-03T14:49:07.804Z,5.40
2023-03-03T14:51:42.937Z,5.40
2023-03-03T14:54:27.409Z,5.40
2023-03-03T14:57:07.547Z,5.40
2023-03-03T14:59:36.436Z,5.30
2023-03-03T15:02:32.061Z,5.30
2023-03-03T15:05:21.621Z,5.30
2023-03-03T15:07:54.964Z,5.20
2023-03-03T15:10:35.975Z,5.20
2023-03-03T15:13:29.210Z,5.10
2023-03-03T15:16:12.577Z,5.00
2023-03-03T15:19:09.831Z,5.00
2023-03-03T15:21:48.218Z,5.00
2023-03-03T15:24:24.407Z,5.00
2023-03-03T15:26:58.360Z,5.00
2023-03-03T15:29:31.422Z,4.90
2023-03-03T15:32:07.021Z,4.90
2023-03-03T15:34:44.125Z,4.90
2023-03-03T15:37:39.065Z,5.00
2023-03-03T15:40:20.367Z,4.90
2023-03-03T15:42:51.062Z,4.90
2023-03-03T15:45:26.217Z,4.90
2023-03-03T15:48:25.020Z,4.70
2023-03-03T15:51:02.035Z,4.70
2023-03-03T15:53:55.062Z,4.70
2023-03-03T15:56:30.982Z,4.60
2023-03-03T15:59:26.401Z,4.50
2023-03-03T16:02:04.655Z,4.50
2023-03-03T16:04:37.261Z,4.50
2023-03-03T16:07:17.104Z,4.50
2023-03-03T16:09:56.611Z,4.60
2023-03-03T16:12:32.250Z,4.50
2023-03-03T16:15:20.037Z,4.40
2023-03-03T16:17:56.501Z,4.40
2023-03-03T16:20:31.635Z,4.30
2023-03-03T16:23:17.588Z,4.30
2023-03-03T16:26:07.974Z,4.30
2023-03-03T16:29:03.633Z,4.20
2023-03-03T16:31:37.663Z,4.10
2023-03-03T16:34:14.698Z,4.10
2023-03-03T16:36:55.696Z,4.00
2023-03-03T16:39:38.614Z,3.90
2023-03-03T16:42:21.404Z,3.90
2023-03-03T16:45:00.267Z,3.70
2023-03-03T16:47:43.469Z,3.70
2023-03-03T16:50:24.059Z,3.60
2023-03-03T16:53:01.146Z,3.60
2023-03-03T16:55:36.031Z,3.50
2023-03-03T16:58:14.479Z,3.50
2023-03-03T17:00:50.202Z,3.40
2023-03-03T17:03:43.916Z,3.30
2023-03-03T17:06:22.163Z,3.20
2023-03-03T17:09:32.250Z,3.20
2023-03-03T17:12:31.648Z,3.10
2023-03-03T17:15:12.118Z,3.00
2023-03-03T17:17:45.367Z,2.90
2023-03-03T17:20:24.765Z,2.80
2023-03-03T17:23:04.127Z,2.70
2023-03-03T17:25:41.245Z,2.70
2023-03-03T17:28:26.465Z,2.70
2023-03-03T17:31:00.189Z,2.70
2023-03-03T17:33:47.208Z,2.60
2023-03-03T17:36:34.106Z,2.60
2023-03-03T17:39:13.883Z,2.50
2023-03-03T17:41:49.215Z,2.50
2023-03-03T17:44:28.694Z,2.50
2023-03-03T17:47:01.295Z,2.40
2023-03-03T17:49:55.611Z,2.40
2023-03-03T17:52:55.810Z,2.30
2023-03-03T17:55:52.049Z,2.20
2023-03-03T17:58:46.462Z,2.20
2023-03-03T18:01:26.716Z,2.10
2023-03-03T18:04:13.329Z,2.10
2023-03-03T18:07:17.819Z,2.00
2023-03-03T18:10:13.778Z,2.00
2023-03-03T18:12:51.064Z,1.90
2023-03-03T18:15:38.263Z,1.90
2023-03-03T18:18:22.071Z,1.90
2023-03-03T18:21:03.958Z,1.90
2023-03-03T18:23:41.806Z,1.80
2023-03-03T18:26:34.841Z,1.80
2023-03-03T18:29:22.353Z,1.80
2023-03-03T18:32:03.431Z,1.80
2023-03-03T18:34:38.026Z,1.80
2023-03-03T18:37:11.360Z,1.70
2023-03-03T18:39:47.786Z,1.80
2023-03-03T18:42:38.189Z,1.70
2023-03-03T18:45:49.809Z,1.60
2023-03-03T18:48:20.118Z,1.60
2023-03-03T18:50:52.440Z,1.60
2023-03-03T18:53:26.969Z,1.50
2023-03-03T18:55:57.507Z,1.50
2023-03-03T18:58:33.867Z,1.50
2023-03-03T19:01:30.136Z,1.50
2023-03-03T19:04:18.185Z,1.50
2023-03-03T19:07:24.691Z,1.40
2023-03-03T19:09:58.056Z,1.40
2023-03-03T19:12:47.550Z,1.40
2023-03-03T19:15:45.644Z,1.40
2023-03-03T19:18:21.062Z,1.40
2023-03-03T19:20:57.731Z,1.40
2023-03-03T19:23:49.883Z,1.40
2023-03-03T19:26:59.669Z,1.40
2023-03-03T19:30:05.944Z,1.40
2023-03-03T19:33:04.676Z,1.30
2023-03-03T19:35:41.785Z,1.30
2023-03-03T19:38:26.410Z,1.30
2023-03-03T19:41:08.821Z,1.30
2023-03-03T19:43:45.107Z,1.30
2023-03-03T19:46:37.378Z,1.30
2023-03-03T19:49:18.088Z,1.20
2023-03-03T19:51:53.399Z,1.20
2023-03-03T19:55:03.288Z,1.10
2023-03-03T19:57:46.002Z,1.10
2023-03-03T20:00:23.226Z,1.10
2023-03-03T20:03:23.943Z,1.10
2023-03-03T20:05:57.531Z,1.00
2023-03-03T20:08:32.582Z,1.00
2023-03-03T20:11:06.366Z,1.00
2023-03-03T20:13:48.274Z,0.90
2023-03-03T20:16:28.684Z,0.90
2023-03-03T20:19:25.660Z,0.90
2023-03-03T20:22:05.491Z,0.80
2023-03-03T20:24:47.079Z,0.80
2023-03-03T20:27:18.590Z,0.90
2023-03-03T20:30:08.592Z,0.80
2023-03-03T20:32:59.354Z,0.80
2023-03-03T20:35:37.869Z,0.70
2023-03-03T20:38:16.683Z,0.70
2023-03-03T20:40:52.415Z,0.60
2023-03-03T20:43:31.310Z,0.60
2023-03-03T20:46:09.689Z,0.60
2023-03-03T20:48:54.220Z,0.50
2023-03-03T20:51:30.623Z,0.50
2023-03-03T20:54:08.111Z,0.50
2023-03-03T20:56:43.363Z,0.40
2023-03-03T20:59:21.680Z,0.40
2023-03-03T21:01:58.122Z,0.40
2023-03-03T21:04:28.945Z,0.40
2023-03-03T21:06:58.350Z,0.40
2023-03-03T21:09:30.009Z,0.30
2023-03-03T21:12:00.106Z,0.30
2023-03-03T21:14:30.595Z,0.30
2023-03-03T21:17:02.701Z,0.30
2023-03-03T21:19:32.504Z,0.30
2023-03-03T21:22:02.767Z,0.30
2023-03-03T21:24:54.641Z,0.30
2023-03-03T21:27:28.821Z,0.30
2023-03-03T21:30:07.151Z,0.30
2023-03-03T21:32:40.522Z,0.30
2023-03-03T21:35:11.961Z,0.30
2023-03-03T21:37:46.763Z,0.30
2023-03-03T21:40:18.354Z,0.30
2023-03-03T21:42:46.879Z,0.30
2023-03-03T21:45:17.148Z,0.30
2023-03-03T21:47:47.284Z,0.30
2023-03-03T21:50:16.793Z,0.30
2023-03-03T21:52:45.251Z,0.30
2023-03-03T21:55:13.836Z,0.40
2023-03-03T21:57:42.299Z,0.40
2023-03-03T22:00:12.540Z,0.40
2023-03-03T22:02:41.047Z,0.50
2023-03-03T22:05:11.142Z,0.50
2023-03-03T22:07:39.721Z,0.60
2023-03-03T22:10:09.927Z,0.60
2023-03-03T22:12:38.647Z,0.60
2023-03-03T22:15:08.222Z,0.60
2023-03-03T22:17:36.780Z,0.70
2023-03-03T22:20:05.796Z,0.70
2023-03-03T22:22:35.704Z,0.70
2023-03-03T22:25:04.427Z,0.80
2023-03-03T22:27:33.048Z,0.80
2023-03-03T22:30:01.903Z,0.80
2023-03-03T22:32:30.751Z,0.90
2023-03-03T22:34:59.392Z,0.90
2023-03-03T22:37:27.907Z,0.90
2023-03-03T22:39:57.809Z,1.00
2023-03-03T22:42:26.328Z,1.00
2023-03-03T22:44:54.970Z,1.00
2023-03-03T22:47:23.610Z,1.00
2023-03-03T22:49:52.166Z,1.10
2023-03-03T22:52:20.826Z,1.10
2023-03-03T22:54:49.386Z,1.10
2023-03-03T22:57:19.354Z,1.20
2023-03-03T22:59:47.914Z,1.20
2023-03-03T23:02:16.447Z,1.20
2023-03-03T23:04:45.162Z,1.20
2023-03-03T23:07:13.720Z,1.20
2023-03-03T23:09:42.235Z,1.30
2023-03-03T23:12:10.832Z,1.30
2023-03-03T23:14:40.666Z,1.40
2023-03-03T23:17:09.191Z,1.40
2023-03-03T23:19:37.806Z,1.40
2023-03-03T23:22:06.318Z,1.40
2023-03-03T23:24:34.920Z,1.50
2023-03-03T23:27:03.414Z,1.50
2023-03-03T23:29:31.971Z,1.50
2023-03-03T23:32:03.140Z,1.50
2023-03-03T23:34:32.057Z,1.50
2023-03-03T23:37:00.550Z,1.60
2023-03-03T23:39:29.170Z,1.60
2023-03-03T23:41:57.733Z,1.60
2023-03-03T23:44:26.330Z,1.60
2023-03-03T23:46:54.903Z,1.60
2023-03-03T23:49:25.029Z,1.60
2023-03-03T23:51:53.598Z,1.70
2023-03-03T23:54:22.347Z,1.70
2023-03-03T23:56:50.957Z,1.70
2023-03-03T23:59:19.515Z,1.70
